createdAt,value
2022-12-24T00:00:05.822Z,100513.00
2022-12-24T00:02:36.141Z,100514.13
2022-12-24T00:05:02.869Z,100519.78
2022-12-24T00:07:29.858Z,100527.03
2022-12-24T00:09:56.556Z,100526.44
2022-12-24T00:12:23.655Z,100527.44
2022-12-24T00:14:50.242Z,100532.84
2022-12-24T00:17:16.910Z,100539.25
2022-12-24T00:19:43.567Z,100533.97
2022-12-24T00:22:10.490Z,100537.66
2022-12-24T00:24:37.454Z,100547.63
2022-12-24T00:27:05.697Z,100547.03
2022-12-24T00:29:33.379Z,100552.44
2022-12-24T00:32:00.426Z,100549.88
2022-12-24T00:34:27.171Z,100556.97
2022-12-24T00:36:53.751Z,100567.78
2022-12-24T00:39:20.241Z,100566.94
2022-12-24T00:41:46.784Z,100562.53
2022-12-24T00:44:13.382Z,100569.63
2022-12-24T00:46:41.818Z,100575.75
2022-12-24T00:49:10.937Z,100577.44
2022-12-24T00:51:37.826Z,100579.88
2022-12-24T00:54:05.622Z,100580.88
2022-12-24T00:56:32.260Z,100585.41
2022-12-24T00:58:58.806Z,100587.13
2022-12-24T01:01:27.033Z,100598.78
2022-12-24T01:04:14.473Z,100597.06
2022-12-24T01:06:41.275Z,100606.03
2022-12-24T01:09:07.882Z,100610.72
2022-12-24T01:11:34.447Z,100610.84
2022-12-24T01:14:00.991Z,100605.72
2022-12-24T01:16:27.533Z,100615.81
2022-12-24T01:18:54.082Z,100608.69
2022-12-24T01:21:20.645Z,100609.53
2022-12-24T01:23:47.232Z,100616.66
2022-12-24T01:26:13.806Z,100622.06
2022-12-24T01:28:40.773Z,100627.44
2022-12-24T01:31:12.586Z,100622.91
2022-12-24T01:33:39.158Z,100629.31
2022-12-24T01:36:06.143Z,100636.41
2022-12-24T01:38:32.747Z,100637.41
2022-12-24T01:41:17.878Z,100633.72
2022-12-24T01:43:44.431Z,100642.53
2022-12-24T01:46:28.063Z,100641.81
2022-12-24T01:48:58.254Z,100648.06
2022-12-24T01:51:33.780Z,100642.78
2022-12-24T01:54:04.855Z,100642.66
2022-12-24T01:56:33.110Z,100652.19
2022-12-24T01:59:10.523Z,100653.59
2022-12-24T02:01:37.592Z,100657.28
2022-12-24T02:04:16.945Z,100664.81
2022-12-24T02:06:43.747Z,100666.91
2022-12-24T02:09:10.359Z,100675.41
2022-12-24T02:11:41.263Z,100687.47
2022-12-24T02:14:08.172Z,100682.19
2022-12-24T02:16:46.530Z,100687.00
2022-12-24T02:19:42.754Z,100689.25
2022-12-24T02:22:15.273Z,100689.00
2022-12-24T02:25:10.818Z,100694.97
2022-12-24T02:28:02.445Z,100696.81
2022-12-24T02:30:42.036Z,100697.81
2022-12-24T02:33:19.503Z,100695.09
2022-12-24T02:36:17.572Z,100698.06
2022-12-24T02:38:52.759Z,100696.22
2022-12-24T02:41:26.850Z,100698.78
2022-12-24T02:43:57.440Z,100703.22
2022-12-24T02:46:27.984Z,100700.50
2022-12-24T02:48:56.582Z,100702.22
2022-12-24T02:51:24.862Z,100699.38
2022-12-24T02:53:51.692Z,100702.66
2022-12-24T02:56:41.010Z,100708.06
2022-12-24T02:59:22.383Z,100709.50
2022-12-24T03:02:19.649Z,100704.97
2022-12-24T03:05:08.036Z,100703.13
2022-12-24T03:07:43.847Z,100703.84
2022-12-24T03:10:22.605Z,100703.84
2022-12-24T03:12:53.144Z,100696.75
2022-12-24T03:15:23.013Z,100691.47
2022-12-24T03:17:51.654Z,100698.72
2022-12-24T03:20:23.415Z,100701.56
2022-12-24T03:22:50.226Z,100696.28
2022-12-24T03:25:17.346Z,100703.78
2022-12-24T03:27:44.555Z,100697.53
2022-12-24T03:30:13.847Z,100704.91
2022-12-24T03:32:40.628Z,100706.75
2022-12-24T03:35:08.537Z,100714.00
2022-12-24T03:37:35.095Z,100717.56
2022-12-24T03:40:01.583Z,100714.00
2022-12-24T03:42:28.069Z,100720.50
2022-12-24T03:44:54.607Z,100721.50
2022-12-24T03:47:21.099Z,100725.06
2022-12-24T03:49:47.655Z,100724.06
2022-12-24T03:52:14.378Z,100717.69
2022-12-24T03:54:40.878Z,100722.94
2022-12-24T03:57:07.698Z,100729.06
2022-12-24T03:59:34.329Z,100728.94
2022-12-24T04:02:01.071Z,100724.41
2022-12-24T04:04:27.821Z,100734.22
2022-12-24T04:06:54.355Z,100738.47
2022-12-24T04:09:20.852Z,100745.59
2022-12-24T04:11:47.407Z,100738.34
2022-12-24T04:14:13.941Z,100740.91
2022-12-24T04:16:40.492Z,100739.94
2022-12-24T04:19:07.089Z,100746.19
2022-12-24T04:21:33.627Z,100735.38
2022-12-24T04:24:00.413Z,100755.13
2022-12-24T04:26:26.960Z,100753.16
2022-12-24T04:28:53.633Z,100752.19
2022-12-24T04:31:20.315Z,100752.19
2022-12-24T04:33:47.347Z,100746.78
2022-12-24T04:36:19.710Z,100749.34
2022-12-24T04:38:47.772Z,100754.59
2022-12-24T04:41:23.750Z,100756.31
2022-12-24T04:43:51.641Z,100764.03
2022-12-24T04:46:21.434Z,100759.34
2022-12-24T04:48:50.093Z,100756.50
2022-12-24T04:51:17.838Z,100760.19
2022-12-24T04:53:44.986Z,100765.59
2022-12-24T04:56:17.375Z,100766.72
2022-12-24T04:58:44.627Z,100771.13
2022-12-24T05:01:18.132Z,100770.41
2022-12-24T05:03:44.976Z,100771.25
2022-12-24T05:06:15.691Z,100773.84
2022-12-24T05:08:43.629Z,100776.41
2022-12-24T05:11:14.172Z,100769.16
2022-12-24T05:13:46.714Z,100770.00
2022-12-24T05:16:16.807Z,100779.97
2022-12-24T05:18:43.607Z,100779.09
2022-12-24T05:21:13.314Z,100782.06
2022-12-24T05:23:58.151Z,100777.66
2022-12-24T05:26:37.713Z,100773.25
2022-12-24T05:29:05.753Z,100780.63
2022-12-24T05:31:33.560Z,100778.91
2022-12-24T05:34:00.929Z,100771.94
2022-12-24T05:36:27.712Z,100774.63
2022-12-24T05:38:54.494Z,100780.03
2022-12-24T05:41:22.779Z,100781.16
2022-12-24T05:43:49.636Z,100771.94
2022-12-24T05:46:20.019Z,100787.28
2022-12-24T05:48:47.716Z,100796.09
2022-12-24T05:51:18.697Z,100792.41
2022-12-24T05:53:46.267Z,100795.09
2022-12-24T05:56:15.816Z,100783.44
2022-12-24T05:58:44.061Z,100796.94
2022-12-24T06:01:11.931Z,100803.19
2022-12-24T06:03:38.612Z,100815.84
2022-12-24T06:06:08.346Z,100819.28
2022-12-24T06:08:36.467Z,100821.97
2022-12-24T06:11:06.310Z,100818.28
2022-12-24T06:13:33.844Z,100818.28
2022-12-24T06:16:03.196Z,100816.56
2022-12-24T06:18:31.642Z,100825.66
2022-12-24T06:20:59.375Z,100832.78
2022-12-24T06:23:32.442Z,100822.09
2022-12-24T06:26:03.155Z,100829.22
2022-12-24T06:28:31.521Z,100832.91
2022-12-24T06:31:02.723Z,100836.59
2022-12-24T06:33:31.039Z,100841.25
2022-12-24T06:35:57.937Z,100838.69
2022-12-24T06:38:24.479Z,100837.97
2022-12-24T06:40:51.143Z,100845.34
2022-12-24T06:43:17.701Z,100839.09
2022-12-24T06:45:46.649Z,100844.47
2022-12-24T06:48:13.688Z,100855.28
2022-12-24T06:50:40.682Z,100856.00
2022-12-24T06:53:09.550Z,100853.31
2022-12-24T06:55:36.261Z,100858.72
2022-12-24T06:58:03.414Z,100867.53
2022-12-24T07:00:29.951Z,100863.84
2022-12-24T07:02:56.528Z,100868.38
2022-12-24T07:05:23.224Z,100858.72
2022-12-24T07:07:49.758Z,100855.88
2022-12-24T07:10:18.327Z,100863.97
2022-12-24T07:12:45.295Z,100871.09
2022-12-24T07:15:13.401Z,100873.91
2022-12-24T07:17:40.285Z,100876.63
2022-12-24T07:20:08.605Z,100877.59
2022-12-24T07:22:35.132Z,100866.06
2022-12-24T07:25:01.731Z,100875.16
2022-12-24T07:27:28.407Z,100882.41
2022-12-24T07:29:54.899Z,100880.81
2022-12-24T07:32:21.477Z,100878.25
2022-12-24T07:34:47.978Z,100892.72
2022-12-24T07:37:14.533Z,100894.81
2022-12-24T07:39:41.088Z,100908.56
2022-12-24T07:42:08.498Z,100909.94
2022-12-24T07:44:36.093Z,100924.41
2022-12-24T07:47:02.875Z,100923.69
2022-12-24T07:49:29.732Z,100925.53
2022-12-24T07:51:56.281Z,100927.38
2022-12-24T07:54:22.991Z,100930.19
2022-12-24T07:56:49.548Z,100930.19
2022-12-24T07:59:16.230Z,100936.69
2022-12-24T08:01:43.921Z,100950.31
2022-12-24T08:04:10.714Z,100956.69
2022-12-24T08:06:37.343Z,100959.41
2022-12-24T08:09:04.267Z,100974.00
2022-12-24T08:11:31.135Z,100972.41
2022-12-24T08:13:57.691Z,100987.72
2022-12-24T08:16:24.274Z,100980.63
2022-12-24T08:18:50.872Z,100981.47
2022-12-24T08:21:17.452Z,100994.97
2022-12-24T08:23:44.022Z,100997.66
2022-12-24T08:26:11.000Z,101002.94
2022-12-24T08:28:37.937Z,101000.97
2022-12-24T08:31:05.083Z,101012.63
2022-12-24T08:33:32.270Z,101012.63
2022-12-24T08:36:01.041Z,101009.94
2022-12-24T08:38:27.530Z,101011.66
2022-12-24T08:40:55.474Z,101008.09
2022-12-24T08:43:22.499Z,101020.72
2022-12-24T08:45:50.088Z,101011.75
2022-12-24T08:48:17.253Z,101004.78
2022-12-24T08:50:44.398Z,101017.41
2022-12-24T08:53:11.111Z,101010.16
2022-12-24T08:55:38.099Z,101023.53
2022-12-24T08:58:04.940Z,101028.81
2022-12-24T09:00:31.536Z,101027.97
2022-12-24T09:03:01.390Z,101034.09
2022-12-24T09:05:29.192Z,101028.56
2022-12-24T09:07:55.984Z,101037.53
2022-12-24T09:10:22.720Z,101044.63
2022-12-24T09:12:49.247Z,101047.22
2022-12-24T09:15:15.823Z,101053.34
2022-12-24T09:17:42.811Z,101053.22
2022-12-24T09:20:10.254Z,101060.22
2022-12-24T09:22:39.543Z,101050.75
2022-12-24T09:25:06.999Z,101063.16
2022-12-24T09:27:33.738Z,101076.16
2022-12-24T09:30:00.325Z,101074.78
2022-12-24T09:32:26.907Z,101080.81
2022-12-24T09:34:53.933Z,101087.53
2022-12-24T09:37:20.537Z,101090.72
2022-12-24T09:39:47.106Z,101095.88
2022-12-24T09:42:40.026Z,101085.94
2022-12-24T09:45:16.025Z,101101.75
2022-12-24T09:47:51.746Z,101103.34
2022-12-24T09:50:24.045Z,101107.66
2022-12-24T09:52:52.506Z,101110.13
2022-12-24T09:55:37.114Z,101101.78
2022-12-24T09:58:06.809Z,101105.09
2022-12-24T10:00:37.569Z,101102.13
2022-12-24T10:03:16.014Z,101101.41
2022-12-24T10:05:58.035Z,101109.25
2022-12-24T10:08:37.743Z,101122.63
2022-12-24T10:11:37.871Z,101127.66
2022-12-24T10:14:17.956Z,101121.75
2022-12-24T10:17:18.112Z,101133.03
2022-12-24T10:19:54.691Z,101129.97
2022-12-24T10:22:49.117Z,101139.56
2022-12-24T10:25:28.239Z,101134.75
2022-12-24T10:28:00.929Z,101128.09
2022-12-24T10:30:28.700Z,101129.56
2022-12-24T10:32:55.386Z,101123.78
2022-12-24T10:35:46.045Z,101120.81
2022-12-24T10:38:12.824Z,101121.41
2022-12-24T10:40:45.730Z,101122.88
2022-12-24T10:43:19.569Z,101118.91
2022-12-24T10:45:59.599Z,101128.34
2022-12-24T10:48:30.363Z,101129.72
2022-12-24T10:50:59.123Z,101132.16
2022-12-24T10:53:32.990Z,101134.88
2022-12-24T10:56:13.450Z,101133.16
2022-12-24T10:58:45.703Z,101126.03
2022-12-24T11:01:13.535Z,101128.72
2022-12-24T11:03:40.330Z,101139.53
2022-12-24T11:06:14.565Z,101127.88
2022-12-24T11:08:43.884Z,101135.13
2022-12-24T11:11:16.887Z,101135.00
2022-12-24T11:13:49.663Z,101139.28
2022-12-24T11:16:30.238Z,101139.28
2022-12-24T11:18:59.684Z,101129.19
2022-12-24T11:21:35.629Z,101141.88
2022-12-24T11:24:08.079Z,101144.69
2022-12-24T11:26:34.960Z,101140.16
2022-12-24T11:29:20.296Z,101140.00
2022-12-24T11:31:47.548Z,101130.66
2022-12-24T11:34:29.154Z,101142.19
2022-12-24T11:37:14.645Z,101145.50
2022-12-24T11:39:46.182Z,101145.38
2022-12-24T11:42:36.890Z,101138.97
2022-12-24T11:45:07.940Z,101140.56
2022-12-24T11:47:40.466Z,101142.41
2022-12-24T11:50:22.312Z,101145.97
2022-12-24T11:52:55.142Z,101151.25
2022-12-24T11:55:31.791Z,101150.13
2022-12-24T11:58:05.839Z,101146.56
2022-12-24T12:00:32.418Z,101145.56
2022-12-24T12:03:02.517Z,101159.09
2022-12-24T12:05:33.324Z,101146.44
2022-12-24T12:08:14.293Z,101156.13
2022-12-24T12:10:42.964Z,101156.84
2022-12-24T12:13:15.696Z,101159.56
2022-12-24T12:15:49.474Z,101160.28
2022-12-24T12:18:32.670Z,101151.31
2022-12-24T12:21:06.407Z,101162.28
2022-12-24T12:23:38.193Z,101162.00
2022-12-24T12:26:10.555Z,101153.75
2022-12-24T12:28:52.590Z,101167.88
2022-12-24T12:31:37.049Z,101172.16
2022-12-24T12:34:16.951Z,101167.63
2022-12-24T12:36:51.095Z,101166.63
2022-12-24T12:39:17.911Z,101178.19
2022-12-24T12:42:01.397Z,101174.34
2022-12-24T12:44:38.477Z,101174.22
2022-12-24T12:47:23.599Z,101180.34
2022-12-24T12:49:56.195Z,101185.50
2022-12-24T12:52:34.727Z,101180.94
2022-12-24T12:55:42.729Z,101188.09
2022-12-24T12:58:49.637Z,101197.06
2022-12-24T13:01:40.299Z,101198.78
2022-12-24T13:04:29.202Z,101209.47
2022-12-24T13:07:11.814Z,101192.38
2022-12-24T13:09:59.491Z,101200.75
2022-12-24T13:12:34.946Z,101197.19
2022-12-24T13:15:28.314Z,101210.25
2022-12-24T13:18:45.626Z,101221.34
2022-12-24T13:21:21.480Z,101209.06
2022-12-24T13:23:48.906Z,101210.31
2022-12-24T13:26:16.624Z,101216.97
2022-12-24T13:28:43.433Z,101228.06
2022-12-24T13:31:24.643Z,101219.34
2022-12-24T13:33:53.484Z,101215.78
2022-12-24T13:36:21.730Z,101220.47
2022-12-24T13:38:58.606Z,101225.00
2022-12-24T13:41:39.458Z,101228.84
2022-12-24T13:44:06.901Z,101225.28
2022-12-24T13:46:56.824Z,101232.66
2022-12-24T13:49:39.792Z,101227.25
2022-12-24T13:52:08.273Z,101224.53
2022-12-24T13:54:38.394Z,101225.41
2022-12-24T13:57:23.276Z,101237.94
2022-12-24T14:00:01.121Z,101236.81
2022-12-24T14:02:33.340Z,101232.28
2022-12-24T14:05:05.245Z,101233.25
2022-12-24T14:07:33.599Z,101246.91
2022-12-24T14:10:00.929Z,101242.63
2022-12-24T14:12:49.155Z,101243.88
2022-12-24T14:15:49.517Z,101249.53
2022-12-24T14:18:21.452Z,101255.19
2022-12-24T14:20:54.205Z,101254.59
2022-12-24T14:23:33.189Z,101267.50
2022-12-24T14:26:02.368Z,101265.78
2022-12-24T14:28:36.840Z,101273.16
2022-12-24T14:31:04.854Z,101272.31
2022-12-24T14:33:34.396Z,101280.56
2022-12-24T14:36:02.744Z,101278.94
2022-12-24T14:38:30.201Z,101276.47
2022-12-24T14:41:23.442Z,101276.72
2022-12-24T14:44:29.732Z,101275.38
2022-12-24T14:47:12.544Z,101279.19
2022-12-24T14:50:36.131Z,101280.69
2022-12-24T14:53:23.612Z,101282.03
2022-12-24T14:55:51.551Z,101295.94
2022-12-24T14:58:26.889Z,101290.03
2022-12-24T15:00:59.516Z,101298.38
2022-12-24T15:03:29.653Z,101291.47
2022-12-24T15:06:03.144Z,101296.25
2022-12-24T15:08:38.018Z,101303.75
2022-12-24T15:11:11.145Z,101306.69
2022-12-24T15:13:40.405Z,101308.16
2022-12-24T15:16:12.704Z,101313.19
2022-12-24T15:18:46.157Z,101317.22
2022-12-24T15:21:20.417Z,101315.00
2022-12-24T15:23:50.035Z,101316.44
2022-12-24T15:26:37.316Z,101311.13
2022-12-24T15:29:20.799Z,101324.72
2022-12-24T15:31:52.906Z,101314.00
2022-12-24T15:34:39.682Z,101323.03
2022-12-24T15:37:24.522Z,101329.44
2022-12-24T15:40:18.914Z,101329.50
2022-12-24T15:42:45.796Z,101332.09
2022-12-24T15:45:27.091Z,101334.50
2022-12-24T15:48:08.582Z,101341.44
2022-12-24T15:50:46.800Z,101335.50
2022-12-24T15:53:20.968Z,101343.94
2022-12-24T15:56:07.104Z,101333.47
2022-12-24T15:58:37.211Z,101340.72
2022-12-24T16:01:15.351Z,101341.91
2022-12-24T16:03:51.239Z,101347.63
2022-12-24T16:06:18.456Z,101344.28
2022-12-24T16:08:45.991Z,101347.28
2022-12-24T16:11:23.697Z,101353.97
2022-12-24T16:14:02.021Z,101354.41
2022-12-24T16:16:41.353Z,101350.53
2022-12-24T16:19:18.176Z,101360.13
2022-12-24T16:21:45.453Z,101353.34
2022-12-24T16:24:19.204Z,101355.72
2022-12-24T16:26:46.166Z,101346.34
2022-12-24T16:29:12.995Z,101345.78
2022-12-24T16:31:45.531Z,101353.22
2022-12-24T16:34:17.104Z,101354.41
2022-12-24T16:36:45.704Z,101360.00
2022-12-24T16:39:25.720Z,101356.56
2022-12-24T16:42:11.662Z,101362.78
2022-12-24T16:44:38.631Z,101369.16
2022-12-24T16:47:12.934Z,101376.34
2022-12-24T16:49:39.774Z,101372.81
2022-12-24T16:52:11.970Z,101362.25
2022-12-24T16:54:38.695Z,101363.38
2022-12-24T16:57:05.181Z,101369.84
2022-12-24T16:59:32.719Z,101370.06
2022-12-24T17:01:59.397Z,101373.03
2022-12-24T17:04:26.052Z,101376.22
2022-12-24T17:06:52.647Z,101373.09
2022-12-24T17:09:19.859Z,101367.16
2022-12-24T17:11:46.403Z,101366.41
2022-12-24T17:14:19.764Z,101362.75
2022-12-24T17:16:46.820Z,101363.59
2022-12-24T17:19:13.373Z,101360.81
2022-12-24T17:21:40.825Z,101366.28
2022-12-24T17:24:08.841Z,101368.31
2022-12-24T17:26:36.094Z,101369.59
2022-12-24T17:29:05.081Z,101368.84
2022-12-24T17:31:33.337Z,101372.69
2022-12-24T17:34:00.368Z,101373.09
2022-12-24T17:36:27.227Z,101375.13
2022-12-24T17:38:53.794Z,101378.03
2022-12-24T17:41:20.869Z,101384.25
2022-12-24T17:43:48.308Z,101384.16
2022-12-24T17:46:23.731Z,101391.25
2022-12-24T17:48:51.084Z,101377.81
2022-12-24T17:51:22.667Z,101383.75
2022-12-24T17:53:49.866Z,101380.31
2022-12-24T17:56:17.517Z,101381.16
2022-12-24T17:58:45.528Z,101379.34
2022-12-24T18:01:14.410Z,101375.88
2022-12-24T18:03:41.840Z,101383.09
2022-12-24T18:06:10.428Z,101382.22
2022-12-24T18:08:38.863Z,101377.72
2022-12-24T18:11:26.996Z,101382.13
2022-12-24T18:13:55.622Z,101373.19
2022-12-24T18:16:35.234Z,101376.84
2022-12-24T18:19:03.457Z,101387.81
2022-12-24T18:21:32.103Z,101388.00
2022-12-24T18:23:59.641Z,101389.75
2022-12-24T18:26:28.553Z,101387.06
2022-12-24T18:28:57.376Z,101387.06
2022-12-24T18:31:26.679Z,101384.38
2022-12-24T18:33:55.694Z,101385.22
2022-12-24T18:36:22.980Z,101385.22
2022-12-24T18:38:49.960Z,101379.84
2022-12-24T18:41:20.592Z,101379.19
2022-12-24T18:43:48.146Z,101383.13
2022-12-24T18:46:23.522Z,101383.34
2022-12-24T18:48:50.552Z,101374.41
2022-12-24T18:51:18.651Z,101368.94
2022-12-24T18:53:45.147Z,101360.97
2022-12-24T18:56:17.248Z,101359.41
2022-12-24T18:58:44.304Z,101365.84
2022-12-24T19:01:16.521Z,101367.66
2022-12-24T19:03:43.929Z,101373.06
2022-12-24T19:06:11.153Z,101373.06
2022-12-24T19:11:25.341Z,101375.63
2022-12-24T19:13:52.991Z,101379.19
2022-12-24T19:16:19.732Z,101388.97
2022-12-24T19:18:46.380Z,101387.16
2022-12-24T19:21:15.174Z,101381.88
2022-12-24T19:23:41.815Z,101384.56
2022-12-24T19:26:10.791Z,101381.00
2022-12-24T19:28:37.799Z,101378.22
2022-12-24T19:31:10.556Z,101383.59
2022-12-24T19:33:48.867Z,101387.25
2022-12-24T19:36:21.923Z,101385.44
2022-12-24T19:38:48.645Z,101378.22
2022-12-24T19:41:26.707Z,101388.13
2022-12-24T19:43:55.740Z,101378.22
2022-12-24T19:46:25.464Z,101380.91
2022-12-24T19:48:54.260Z,101373.81
2022-12-24T19:51:21.118Z,101381.00
2022-12-24T19:53:48.209Z,101381.88
2022-12-24T19:56:16.518Z,101381.00
2022-12-24T19:58:44.339Z,101381.00
2022-12-24T20:01:16.033Z,101386.50
2022-12-24T20:03:44.901Z,101400.78
2022-12-24T20:06:12.798Z,101400.78
2022-12-24T20:08:40.300Z,101397.81
2022-12-24T20:11:09.319Z,101398.31
2022-12-24T20:13:37.851Z,101404.34
2022-12-24T20:16:06.647Z,101408.56
2022-12-24T20:18:33.594Z,101411.72
2022-12-24T20:21:02.305Z,101409.59
2022-12-24T20:23:29.409Z,101416.28
2022-12-24T20:26:01.376Z,101414.06
2022-12-24T20:28:30.051Z,101408.28
2022-12-24T20:30:56.733Z,101419.47
2022-12-24T20:33:24.355Z,101428.88
2022-12-24T20:35:51.236Z,101420.31
2022-12-24T20:38:18.497Z,101424.53
2022-12-24T20:40:46.593Z,101433.94
2022-12-24T20:43:13.423Z,101437.31
2022-12-24T20:45:40.943Z,101435.25
2022-12-24T20:48:08.207Z,101433.13
2022-12-24T20:50:34.786Z,101427.53
2022-12-24T20:53:01.364Z,101412.13
2022-12-24T20:55:27.874Z,101403.84
2022-12-24T20:57:54.389Z,101410.00
2022-12-24T21:00:21.426Z,101417.09
2022-12-24T21:02:48.161Z,101408.06
2022-12-24T21:05:16.522Z,101399.75
2022-12-24T21:07:45.152Z,101401.59
2022-12-24T21:10:14.600Z,101403.41
2022-12-24T21:12:58.779Z,101395.34
2022-12-24T21:15:30.762Z,101393.50
2022-12-24T21:17:58.515Z,101398.78
2022-12-24T21:20:29.976Z,101388.88
2022-12-24T21:23:01.572Z,101390.63
2022-12-24T21:25:28.390Z,101384.25
2022-12-24T21:27:58.025Z,101396.84
2022-12-24T21:30:24.904Z,101394.16
2022-12-24T21:32:51.906Z,101390.50
2022-12-24T21:35:18.467Z,101376.19
2022-12-24T21:37:45.104Z,101382.22
2022-12-24T21:40:12.207Z,101373.91
2022-12-24T21:42:38.779Z,101371.88
2022-12-24T21:45:06.044Z,101361.84
2022-12-24T21:47:34.547Z,101354.41
2022-12-24T21:50:20.650Z,101348.72
2022-12-24T21:52:47.192Z,101336.53
2022-12-24T21:55:13.755Z,101337.91
2022-12-24T21:57:52.638Z,101342.88
2022-12-24T22:00:24.207Z,101346.25
2022-12-24T22:02:53.024Z,101338.16
2022-12-24T22:05:19.958Z,101336.31
2022-12-24T22:08:06.555Z,101338.16
2022-12-24T22:10:51.973Z,101329.22
2022-12-24T22:13:18.892Z,101337.59
2022-12-24T22:15:51.052Z,101341.59
2022-12-24T22:18:20.655Z,101349.88
2022-12-24T22:20:48.206Z,101353.56
2022-12-24T22:23:18.248Z,101358.81
2022-12-24T22:25:45.332Z,101349.88
2022-12-24T22:28:12.247Z,101345.34
2022-12-24T22:30:42.639Z,101345.47
2022-12-24T22:33:10.652Z,101348.28
2022-12-24T22:35:39.388Z,101341.06
2022-12-24T22:38:07.704Z,101349.13
2022-12-24T22:40:34.274Z,101350.97
2022-12-24T22:43:00.820Z,101343.22
2022-12-24T22:45:27.404Z,101348.72
2022-12-24T22:47:53.882Z,101339.88
2022-12-24T22:50:20.622Z,101341.72
2022-12-24T22:52:47.151Z,101342.66
2022-12-24T22:55:13.784Z,101344.50
2022-12-24T22:57:40.325Z,101341.81
2022-12-24T23:00:15.320Z,101338.25
2022-12-24T23:02:42.114Z,101342.03
2022-12-24T23:05:13.654Z,101343.00
2022-12-24T23:07:40.291Z,101343.22
2022-12-24T23:10:07.924Z,101341.59
2022-12-24T23:12:52.684Z,101345.47
2022-12-24T23:15:19.163Z,101346.78
2022-12-24T23:17:48.972Z,101351.72
2022-12-24T23:20:16.070Z,101362.81
2022-12-24T23:22:42.526Z,101364.84
2022-12-24T23:25:09.315Z,101359.56
2022-12-24T23:27:35.817Z,101369.47
2022-12-24T23:30:02.423Z,101375.63
2022-12-24T23:32:28.960Z,101383.59
2022-12-24T23:34:55.492Z,101382.72
2022-12-24T23:37:22.092Z,101386.28
2022-12-24T23:39:48.679Z,101384.47
2022-12-24T23:42:15.233Z,101392.44
2022-12-24T23:44:41.791Z,101385.97
2022-12-24T23:47:08.346Z,101380.38
2022-12-24T23:49:35.336Z,101376.50
2022-12-24T23:52:01.804Z,101375.41
2022-12-24T23:54:28.385Z,101372.50
2022-12-24T23:56:54.973Z,101373.28
2022-12-24T23:59:21.559Z,101373.28
